Time;durP1;ratioP1;P1;durP2;ratioP2;P2;SDS_P1;SDS_P2;PMS_P1;PMS_P2;Temp;Humidity;BMP_temperature;BMP_pressure;BME280_temperature;BME280_humidity;BME280_pressure;Samples;Min_cycle;Max_cycle;Signal;HPM_P1;HPM_P2
2023/08/21 00:01:40;;;;;;;;;1.00;1.00;;;;;26.53;45.35;101851.38;4938014;28;46423;-42
2023/08/21 00:04:05;;;;;;;;;1.75;0.75;;;;;26.53;45.08;101840.75;4938135;28;45292;-41
2023/08/21 00:06:31;;;;;;;;;1.50;1.50;;;;;26.53;45.01;101837.25;4938105;28;45279;-43
2023/08/21 00:08:56;;;;;;;;;2.75;1.00;;;;;26.53;45.19;101835.44;4921199;28;45519;-43
2023/08/21 00:11:22;;;;;;;;;1.50;1.50;;;;;26.52;45.17;101830.22;4938196;28;49287;-42
2023/08/21 00:13:49;;;;;;;;;3.00;2.00;;;;;26.52;45.21;101832.88;4937993;28;45322;-42
2023/08/21 00:16:16;;;;;;;;;4.00;1.00;;;;;26.52;45.04;101833.72;4938156;28;45362;-43
2023/08/21 00:18:41;;;;;;;;;1.00;1.00;;;;;26.51;44.81;101834.69;4938140;28;45503;-42
2023/08/21 00:21:06;;;;;;;;;1.00;0.50;;;;;26.50;45.16;101833.00;4937382;28;60711;-40
2023/08/21 00:23:31;;;;;;;;;1.75;1.50;;;;;26.49;44.99;101825.97;4935881;28;63179;-44
2023/08/21 00:25:57;;;;;;;;;1.00;1.00;;;;;26.50;44.84;101827.69;4938013;28;45432;-42
2023/08/21 00:28:22;;;;;;;;;1.75;0.50;;;;;26.49;45.08;101828.63;4938447;28;45240;-42
2023/08/21 00:30:48;;;;;;;;;0.25;0.25;;;;;26.49;44.79;101817.13;4937642;28;46236;-46
2023/08/21 00:33:13;;;;;;;;;1.00;1.00;;;;;26.47;44.77;101827.00;4937738;28;45287;-46
2023/08/21 00:35:38;;;;;;;;;5.75;1.25;;;;;26.45;44.48;101829.78;4920490;28;45435;-43
2023/08/21 00:38:04;;;;;;;;;2.00;2.00;;;;;26.44;44.71;101828.06;4937922;28;45293;-43
2023/08/21 00:40:30;;;;;;;;;1.00;1.00;;;;;26.43;45.04;101822.88;4937504;28;51823;-41
2023/08/21 00:42:56;;;;;;;;;1.00;0.25;;;;;26.42;44.37;101822.00;4937735;28;45612;-41
2023/08/21 00:45:21;;;;;;;;;0.75;0.75;;;;;26.41;44.50;101820.28;4938097;28;45446;-42
2023/08/21 00:47:47;;;;;;;;;2.00;2.00;;;;;26.41;44.20;101828.25;4937781;28;45170;-46
2023/08/21 00:50:12;;;;;;;;;1.00;1.00;;;;;26.40;44.68;101821.28;4937465;28;46390;-43
2023/08/21 00:52:40;;;;;;;;;0.00;0.00;;;;;26.40;44.29;101826.59;4937495;28;45314;-42
2023/08/21 00:55:07;;;;;;;;;2.00;0.50;;;;;26.36;44.07;101817.09;4937756;28;45359;-42
2023/08/21 00:57:33;;;;;;;;;2.00;2.00;;;;;26.37;44.06;101819.63;4937508;28;45310;-45
2023/08/21 01:00:00;;;;;;;;;1.00;1.00;;;;;26.35;44.13;101824.19;4937467;28;45372;-41
2023/08/21 01:02:26;;;;;;;;;2.75;1.00;;;;;26.34;43.89;101819.00;4937426;28;45635;-43
2023/08/21 01:04:51;;;;;;;;;2.50;0.00;;;;;26.34;43.66;101824.31;4937861;28;45403;-44
2023/08/21 01:07:17;;;;;;;;;1.00;1.00;;;;;26.34;43.84;101826.97;4937763;28;45585;-45
2023/08/21 01:10:23;;;;;;;;;1.00;0.00;;;;;26.34;43.91;101825.19;4940247;28;46584;-45
2023/08/21 01:13:09;;;;;;;;;0.00;0.00;;;;;26.32;43.84;101828.88;4940495;28;45920;-47
2023/08/21 01:15:37;;;;;;;;;2.00;1.00;;;;;26.30;43.90;101826.31;4940815;28;45368;-46
2023/08/21 01:18:03;;;;;;;;;2.00;1.00;;;;;26.32;43.88;101826.22;4940876;28;45621;-44
2023/08/21 01:20:29;;;;;;;;;0.50;0.50;;;;;26.32;44.04;101834.19;4940774;28;46211;-42
2023/08/21 01:22:54;;;;;;;;;1.00;1.00;;;;;26.30;43.42;101825.44;4940767;28;45248;-43
2023/08/21 01:25:20;;;;;;;;;0.25;0.25;;;;;26.29;43.47;101832.59;4940792;28;45145;-46
2023/08/21 01:27:50;;;;;;;;;0.75;0.75;;;;;26.29;43.60;101829.09;4939316;28;45285;-46
2023/08/21 01:30:16;;;;;;;;;0.00;0.00;;;;;26.28;43.46;101828.22;4923212;28;46750;-45
2023/08/21 01:33:08;;;;;;;;;1.50;0.25;;;;;26.28;43.38;101833.53;4940449;28;45746;-44
2023/08/21 01:35:35;;;;;;;;;1.75;0.00;;;;;26.27;43.25;101838.94;4940619;28;45591;-46
2023/08/21 01:38:02;;;;;;;;;1.75;1.00;;;;;26.24;43.60;101843.50;4923264;28;45615;-43
2023/08/21 01:40:27;;;;;;;;;2.25;1.00;;;;;26.23;43.34;101833.81;4940347;28;46285;-43
2023/08/21 01:42:54;;;;;;;;;1.00;1.00;;;;;26.23;43.60;101839.16;4940217;28;45379;-44
2023/08/21 01:45:19;;;;;;;;;1.00;1.00;;;;;26.23;43.76;101835.66;4940293;28;45496;-46
2023/08/21 01:47:44;;;;;;;;;0.75;0.75;;;;;26.24;43.68;101846.16;4940378;28;45538;-47
2023/08/21 01:50:10;;;;;;;;;1.50;0.00;;;;;26.23;43.98;101833.81;4939534;28;61634;-41
2023/08/21 01:52:35;;;;;;;;;0.00;0.00;;;;;26.22;43.60;101837.44;4939480;28;61845;-45
2023/08/21 01:55:00;;;;;;;;;1.00;1.00;;;;;26.24;43.64;101835.53;4940205;28;45232;-41
2023/08/21 01:57:26;;;;;;;;;0.00;0.00;;;;;26.24;43.54;101834.66;4940359;28;45165;-41
2023/08/21 01:59:51;;;;;;;;;0.00;0.00;;;;;26.24;43.49;101840.84;4939911;28;45359;-45
2023/08/21 02:02:16;;;;;;;;;2.00;0.50;;;;;26.23;43.65;101841.81;4939489;28;60222;-46
2023/08/21 02:04:42;;;;;;;;;2.50;1.00;;;;;26.24;43.82;101839.97;4939870;28;45576;-43
2023/08/21 02:07:07;;;;;;;;;1.00;1.00;;;;;26.21;43.26;101829.56;4940103;28;45244;-41
2023/08/21 02:09:33;;;;;;;;;0.25;0.25;;;;;26.22;43.42;101837.44;4939683;28;46375;-42
2023/08/21 02:11:58;;;;;;;;;2.00;2.00;;;;;26.20;43.70;101842.00;4940156;28;45472;-41
2023/08/21 02:14:23;;;;;;;;;0.25;0.25;;;;;26.22;43.57;101845.41;4939782;28;45412;-43
2023/08/21 02:16:48;;;;;;;;;1.00;1.00;;;;;26.22;43.60;101837.44;4939875;28;45546;-43
2023/08/21 02:19:14;;;;;;;;;2.75;1.00;;;;;26.19;43.59;101834.97;4921693;28;54582;-41
2023/08/21 02:21:39;;;;;;;;;0.75;0.75;;;;;26.20;43.71;101836.66;4922353;28;45599;-43
2023/08/21 02:24:04;;;;;;;;;1.00;1.00;;;;;26.18;43.63;101835.06;4939635;28;45328;-43
2023/08/21 02:26:30;;;;;;;;;1.50;1.00;;;;;26.20;43.68;101838.50;4940019;28;45450;-40
2023/08/21 02:28:55;;;;;;;;;2.00;1.00;;;;;26.17;43.67;101828.91;4939399;28;45278;-41
2023/08/21 02:31:20;;;;;;;;;1.00;1.00;;;;;26.18;43.61;101830.59;4939351;28;45267;-42
2023/08/21 02:33:46;;;;;;;;;2.00;2.00;;;;;26.17;44.03;101823.59;4938973;28;59012;-42
2023/08/21 02:36:11;;;;;;;;;1.00;1.00;;;;;26.16;43.83;101829.88;4939714;28;45952;-43
2023/08/21 02:38:36;;;;;;;;;1.00;1.00;;;;;26.15;44.01;101824.63;4939111;28;56593;-44
2023/08/21 02:41:02;;;;;;;;;1.50;1.00;;;;;26.12;43.60;101831.00;4939307;28;45411;-41
2023/08/21 02:43:27;;;;;;;;;2.00;2.00;;;;;26.13;43.56;101837.19;4939489;28;45449;-43
2023/08/21 02:45:52;;;;;;;;;2.00;1.00;;;;;26.12;43.65;101836.31;4939342;28;45366;-41
2023/08/21 02:48:17;;;;;;;;;2.00;2.00;;;;;26.09;43.49;101836.47;4938226;28;69177;-44
2023/08/21 02:50:43;;;;;;;;;4.50;1.00;;;;;26.10;43.78;101842.69;4939205;28;45319;-43
2023/08/21 02:53:08;;;;;;;;;1.00;1.00;;;;;26.08;43.26;101835.63;4939240;28;45367;-40
2023/08/21 02:55:34;;;;;;;;;2.75;1.50;;;;;26.08;43.66;101840.06;4939435;28;45308;-46
2023/08/21 02:57:59;;;;;;;;;1.25;1.00;;;;;26.06;43.81;101832.22;4939191;28;46816;-41
2023/08/21 03:00:24;;;;;;;;;1.00;0.00;;;;;26.06;43.55;101839.34;4939232;28;45216;-40
2023/08/21 03:02:50;;;;;;;;;0.00;0.00;;;;;26.05;43.64;101834.97;4939217;28;45441;-42
2023/08/21 03:05:15;;;;;;;;;3.00;1.00;;;;;26.04;43.54;101838.59;4939341;28;45378;-43
2023/08/21 03:07:40;;;;;;;;;1.25;1.25;;;;;26.04;43.71;101827.97;4938795;28;46111;-45
2023/08/21 03:10:07;;;;;;;;;2.00;2.00;;;;;26.03;43.74;101820.94;4938754;28;45244;-46
2023/08/21 03:12:33;;;;;;;;;2.25;1.75;;;;;26.03;43.63;101823.59;4939384;28;45348;-43
2023/08/21 03:14:58;;;;;;;;;2.00;1.00;;;;;26.01;43.27;101830.81;4939145;28;45488;-45
2023/08/21 03:17:24;;;;;;;;;2.75;1.75;;;;;26.00;43.62;101837.94;4938774;28;46065;-44
2023/08/21 03:19:49;;;;;;;;;2.00;1.25;;;;;25.99;43.40;101833.56;4938762;28;45296;-42
2023/08/21 03:22:14;;;;;;;;;2.00;2.00;;;;;26.01;43.40;101833.47;4938786;28;45527;-44
2023/08/21 03:24:40;;;;;;;;;2.00;2.00;;;;;25.99;43.38;101830.03;4938942;28;45596;-46
2023/08/21 03:27:05;;;;;;;;;2.00;2.00;;;;;25.98;43.47;101825.69;4938494;28;46475;-43
2023/08/21 03:29:30;;;;;;;;;4.50;1.00;;;;;25.99;43.45;101830.03;4938985;28;45394;-45
2023/08/21 03:31:57;;;;;;;;;3.00;2.00;;;;;25.99;43.72;101830.03;4937847;28;45266;-44
2023/08/21 03:34:23;;;;;;;;;5.00;3.00;;;;;25.99;43.75;101841.53;4921529;28;45352;-43
2023/08/21 03:36:48;;;;;;;;;3.25;3.25;;;;;25.98;43.79;101836.28;4938492;28;45292;-43
2023/08/21 03:39:14;;;;;;;;;4.75;4.25;;;;;25.97;43.45;101837.25;4938413;28;45281;-45
2023/08/21 03:41:39;;;;;;;;;6.00;5.00;;;;;25.95;43.36;101837.34;4938609;28;45233;-43
2023/08/21 03:44:04;;;;;;;;;3.75;3.25;;;;;25.96;43.40;101843.53;4938636;28;46448;-41
2023/08/21 03:46:29;;;;;;;;;4.25;3.00;;;;;25.93;43.48;101840.13;4937746;28;63276;-44
2023/08/21 03:48:55;;;;;;;;;4.25;1.75;;;;;25.93;43.60;101842.78;4938212;28;45264;-41
2023/08/21 03:51:20;;;;;;;;;8.00;4.00;;;;;25.93;43.42;101849.88;4938306;28;45305;-42
2023/08/21 03:53:45;;;;;;;;;3.00;3.00;;;;;25.92;43.69;101851.69;4938165;28;45239;-42
2023/08/21 03:56:11;;;;;;;;;4.00;2.75;;;;;25.92;43.26;101846.38;4938182;28;46276;-44
2023/08/21 03:58:36;;;;;;;;;4.25;2.50;;;;;25.89;43.48;101841.25;4938311;28;45318;-42
2023/08/21 04:01:02;;;;;;;;;5.25;4.00;;;;;25.89;43.38;101835.94;4938562;28;45356;-45
2023/08/21 04:03:27;;;;;;;;;4.00;2.25;;;;;25.90;43.30;101845.63;4938413;28;45560;-43
2023/08/21 04:05:58;;;;;;;;;5.00;2.00;;;;;25.89;43.65;101835.94;4938149;28;45344;-42
2023/08/21 04:08:24;;;;;;;;;2.75;2.00;;;;;25.89;43.34;101837.75;4936715;28;45651;-39
2023/08/21 04:10:49;;;;;;;;;1.25;1.25;;;;;25.88;43.51;101833.38;4938217;28;45434;-43
2023/08/21 04:13:15;;;;;;;;;1.00;1.00;;;;;25.88;43.45;101833.38;4938321;28;45227;-44
2023/08/21 04:15:45;;;;;;;;;2.00;1.50;;;;;25.87;43.48;101837.00;4937936;28;46879;-42
2023/08/21 04:18:10;;;;;;;;;1.00;1.00;;;;;25.85;43.14;101842.38;4937969;28;45375;-42
2023/08/21 04:20:35;;;;;;;;;1.50;1.50;;;;;25.85;43.32;101838.88;4938474;28;45247;-44
2023/08/21 04:23:01;;;;;;;;;2.00;1.00;;;;;25.83;43.24;101839.00;4938075;28;45374;-45
2023/08/21 04:25:26;;;;;;;;;0.00;0.00;;;;;25.82;43.44;101842.59;4937757;28;46337;-44
2023/08/21 04:27:51;;;;;;;;;0.00;0.00;;;;;25.82;43.50;101842.59;4937409;28;54677;-44
2023/08/21 04:30:17;;;;;;;;;2.00;1.75;;;;;25.81;43.29;101845.31;4937938;28;45298;-44
2023/08/21 04:32:42;;;;;;;;;2.00;1.00;;;;;25.81;43.87;101842.66;4938069;28;45697;-45
2023/08/21 04:35:08;;;;;;;;;1.25;1.25;;;;;25.81;43.55;101842.66;4937954;28;47789;-45
2023/08/21 04:37:34;;;;;;;;;1.00;1.00;;;;;25.80;43.36;101849.78;4938067;28;45252;-47
2023/08/21 04:39:59;;;;;;;;;2.00;2.00;;;;;25.80;43.37;101857.75;4937884;28;45764;-46
2023/08/21 04:42:24;;;;;;;;;2.00;1.50;;;;;25.82;43.18;101861.19;4921348;28;57443;-47
2023/08/21 04:44:49;;;;;;;;;2.00;2.00;;;;;25.80;43.26;101860.41;4940644;28;59522;-45
2023/08/21 04:47:23;;;;;;;;;4.00;1.25;;;;;25.77;42.92;101863.25;4939734;28;45297;-44
2023/08/21 04:49:49;;;;;;;;;1.25;1.00;;;;;25.77;43.14;101873.88;4941147;28;45316;-44
2023/08/21 04:52:15;;;;;;;;;3.25;1.50;;;;;25.78;43.30;101872.94;4941325;28;45172;-46
2023/08/21 04:54:40;;;;;;;;;2.25;1.00;;;;;25.76;43.12;101867.72;4940894;28;46094;-42
2023/08/21 04:57:05;;;;;;;;;1.50;1.50;;;;;25.75;43.07;101863.34;4940983;28;45239;-44
2023/08/21 04:59:31;;;;;;;;;1.00;1.00;;;;;25.75;43.12;101866.00;4940576;28;53059;-46
2023/08/21 05:01:56;;;;;;;;;1.00;1.00;;;;;25.73;43.04;101870.56;4941127;28;45447;-44
2023/08/21 05:04:21;;;;;;;;;1.00;1.00;;;;;25.73;42.75;101870.56;4939504;28;47070;-44
2023/08/21 05:06:46;;;;;;;;;1.25;1.00;;;;;25.73;43.04;101872.38;4940359;28;52815;-42
2023/08/21 05:09:12;;;;;;;;;1.50;1.50;;;;;25.73;42.71;101875.03;4940110;28;62121;-44
2023/08/21 05:11:37;;;;;;;;;1.00;1.00;;;;;25.72;43.52;101870.66;4941128;28;45378;-42
2023/08/21 05:14:03;;;;;;;;;2.00;2.00;;;;;25.72;43.04;101876.81;4940582;28;47379;-44
2023/08/21 05:16:28;;;;;;;;;4.00;2.00;;;;;25.73;43.25;101881.19;4939142;28;47874;-41
2023/08/21 05:18:53;;;;;;;;;1.75;1.75;;;;;25.71;43.16;101874.25;4939948;28;60833;-43
2023/08/21 05:21:18;;;;;;;;;1.00;1.00;;;;;25.72;42.84;101878.63;4940624;28;45532;-45
2023/08/21 05:23:44;;;;;;;;;2.00;2.00;;;;;25.71;43.09;101876.91;4939571;28;63991;-44
2023/08/21 05:26:09;;;;;;;;;1.00;1.00;;;;;25.71;43.25;101879.56;4939517;28;45307;-45
2023/08/21 05:28:34;;;;;;;;;1.00;1.00;;;;;25.71;43.09;101879.56;4940537;28;45365;-41
2023/08/21 05:31:00;;;;;;;;;1.50;1.50;;;;;25.72;42.88;101881.28;4940245;28;47922;-46
2023/08/21 05:33:25;;;;;;;;;0.25;0.00;;;;;25.72;43.65;101881.28;4940324;28;45382;-44
2023/08/21 05:35:50;;;;;;;;;1.75;1.25;;;;;25.70;43.41;101883.19;4939801;28;56443;-42
2023/08/21 05:38:15;;;;;;;;;1.00;1.00;;;;;25.70;43.48;101884.00;4940394;28;45418;-43
2023/08/21 05:40:41;;;;;;;;;4.25;3.00;;;;;25.72;43.07;101886.59;4940779;28;45529;-45
2023/08/21 05:43:08;;;;;;;;;1.25;1.25;;;;;25.68;43.37;101880.63;4940068;28;46366;-41
2023/08/21 05:45:33;;;;;;;;;1.50;0.25;;;;;25.68;43.21;101885.94;4939128;28;45677;-44
2023/08/21 05:47:59;;;;;;;;;1.25;1.25;;;;;25.67;43.16;101886.00;4940152;28;45439;-43
2023/08/21 05:50:24;;;;;;;;;3.75;0.75;;;;;25.66;43.06;101889.59;4940338;28;45331;-42
2023/08/21 05:52:49;;;;;;;;;1.75;1.75;;;;;25.64;43.24;101889.72;4939693;28;53200;-44
2023/08/21 05:55:15;;;;;;;;;3.00;1.00;;;;;25.62;42.94;101887.16;4938835;28;54087;-42
2023/08/21 05:57:40;;;;;;;;;1.00;1.00;;;;;25.60;42.97;101890.84;4940238;28;45263;-47
2023/08/21 06:00:09;;;;;;;;;1.00;1.00;;;;;25.58;43.36;101887.41;4940217;28;45246;-44
2023/08/21 06:02:34;;;;;;;;;3.50;1.00;;;;;25.57;42.94;101891.88;4939760;28;46354;-44
2023/08/21 06:05:00;;;;;;;;;1.00;1.00;;;;;25.56;42.85;101900.78;4939910;28;45415;-42
2023/08/21 06:07:25;;;;;;;;;1.50;1.00;;;;;25.57;43.06;101896.34;4939821;28;45600;-41
2023/08/21 06:09:50;;;;;;;;;2.00;1.00;;;;;25.56;43.36;101892.81;4940136;28;45311;-44
2023/08/21 06:12:15;;;;;;;;;1.25;1.00;;;;;25.60;43.19;101891.72;4939644;28;45316;-43
2023/08/21 06:14:41;;;;;;;;;2.25;1.25;;;;;25.62;43.28;101903.09;4938805;28;50812;-41
2023/08/21 06:17:06;;;;;;;;;1.00;1.00;;;;;25.62;42.95;101897.78;4938060;28;46699;-46
2023/08/21 06:19:32;;;;;;;;;1.00;1.00;;;;;25.61;42.85;101896.06;4939813;28;45631;-43
2023/08/21 06:21:58;;;;;;;;;0.00;0.00;;;;;25.61;42.66;101897.84;4939505;28;46953;-43
2023/08/21 06:24:23;;;;;;;;;1.00;1.00;;;;;25.63;42.34;101898.63;4939445;28;45336;-44
2023/08/21 06:26:51;;;;;;;;;1.75;0.75;;;;;25.60;42.80;101893.50;4939448;28;45245;-44
2023/08/21 06:29:17;;;;;;;;;2.00;1.00;;;;;25.61;42.44;101901.38;4939790;28;45569;-41
2023/08/21 06:31:43;;;;;;;;;1.00;1.00;;;;;25.59;42.73;101905.06;4939619;28;47764;-43
2023/08/21 06:34:08;;;;;;;;;0.25;0.25;;;;;25.58;42.66;101906.88;4939296;28;45737;-42
2023/08/21 06:36:34;;;;;;;;;0.25;0.25;;;;;25.59;42.80;101905.91;4938219;28;45611;-44
2023/08/21 06:38:59;;;;;;;;;1.00;1.00;;;;;25.60;42.26;101906.75;4922337;28;45435;-45
2023/08/21 06:41:25;;;;;;;;;2.00;1.00;;;;;25.57;42.53;101902.50;4938038;28;47568;-42
2023/08/21 06:43:50;;;;;;;;;3.00;1.00;;;;;25.57;42.31;101897.19;4939239;28;45413;-45
2023/08/21 06:46:16;;;;;;;;;1.00;1.00;;;;;25.55;42.15;101893.78;4922261;28;45453;-42
2023/08/21 06:48:42;;;;;;;;;1.00;1.00;;;;;25.58;42.27;101906.00;4939517;28;45348;-40
2023/08/21 06:51:07;;;;;;;;;1.00;0.00;;;;;25.57;41.92;101910.47;4921785;28;47078;-45
2023/08/21 06:53:33;;;;;;;;;0.25;0.00;;;;;25.57;42.23;101913.13;4939109;28;45470;-45
2023/08/21 06:55:58;;;;;;;;;2.00;0.25;;;;;25.58;42.09;101912.19;4939233;28;45313;-46
2023/08/21 06:58:26;;;;;;;;;1.00;1.00;;;;;25.57;42.29;101910.47;4939067;28;45529;-43
2023/08/21 07:00:54;;;;;;;;;1.25;0.00;;;;;25.59;41.89;101918.31;4938964;28;46273;-46
2023/08/21 07:03:20;;;;;;;;;1.00;0.00;;;;;25.56;41.83;101914.06;4938965;28;45405;-42
2023/08/21 07:05:56;;;;;;;;;0.00;0.00;;;;;25.57;42.28;101907.81;4938224;28;45531;-44
2023/08/21 07:08:23;;;;;;;;;0.00;0.00;;;;;25.57;42.20;101907.81;4939160;28;45465;-42
2023/08/21 07:10:49;;;;;;;;;2.25;1.75;;;;;25.56;41.96;101914.06;4938774;28;45702;-44
2023/08/21 07:13:14;;;;;;;;;0.00;0.00;;;;;25.57;41.99;101909.63;4938094;28;45344;-42
2023/08/21 07:15:39;;;;;;;;;1.00;1.00;;;;;25.58;42.17;101906.00;4938972;28;45219;-42
2023/08/21 07:18:05;;;;;;;;;0.75;0.75;;;;;25.56;41.97;101913.22;4921740;28;45323;-44
2023/08/21 07:20:30;;;;;;;;;0.00;0.00;;;;;25.58;41.91;101912.19;4938736;28;46109;-45
2023/08/21 07:22:55;;;;;;;;;1.00;0.00;;;;;25.58;42.07;101912.19;4938596;28;45229;-44
2023/08/21 07:25:21;;;;;;;;;0.25;0.25;;;;;25.57;41.64;101920.25;4938874;28;45293;-45
2023/08/21 07:27:46;;;;;;;;;0.00;0.00;;;;;25.57;41.99;101915.78;4939127;28;45219;-48
2023/08/21 07:30:12;;;;;;;;;0.00;0.00;;;;;25.58;41.52;101920.13;4938544;28;46084;-43
2023/08/21 07:32:37;;;;;;;;;0.25;0.00;;;;;25.58;41.84;101920.13;4938531;28;45335;-45
2023/08/21 07:35:02;;;;;;;;;0.75;0.75;;;;;25.58;41.23;101922.78;4938087;28;60184;-41
2023/08/21 07:37:28;;;;;;;;;1.00;0.00;;;;;25.59;41.02;101926.28;4938607;28;45311;-41
2023/08/21 07:39:56;;;;;;;;;0.75;0.75;;;;;25.59;41.10;101923.63;4936935;28;52519;-47
2023/08/21 07:42:22;;;;;;;;;1.00;1.00;;;;;25.59;41.63;101932.47;4938345;28;45384;-43
2023/08/21 07:44:47;;;;;;;;;1.75;0.00;;;;;25.59;41.44;101927.16;4938097;28;60181;-43
2023/08/21 07:47:12;;;;;;;;;0.00;0.00;;;;;25.60;41.65;101925.34;4938238;28;46557;-44
2023/08/21 07:49:38;;;;;;;;;0.00;0.00;;;;;25.61;41.21;101921.75;4938210;28;46295;-46
2023/08/21 07:52:04;;;;;;;;;1.00;1.00;;;;;25.59;41.47;101924.50;4938229;28;45299;-43
2023/08/21 07:54:29;;;;;;;;;0.75;0.75;;;;;25.61;41.84;101933.25;4938376;28;45411;-41
2023/08/21 07:56:54;;;;;;;;;1.00;1.00;;;;;25.61;41.56;101930.59;4938317;28;45600;-44
2023/08/21 07:59:20;;;;;;;;;0.25;0.25;;;;;25.62;41.52;101926.97;4937889;28;59799;-43
2023/08/21 08:01:45;;;;;;;;;0.25;0.25;;;;;25.64;41.77;101929.53;4938228;28;45297;-45
2023/08/21 08:04:11;;;;;;;;;1.00;1.00;;;;;25.61;41.42;101919.97;4938253;28;45378;-48
2023/08/21 08:06:36;;;;;;;;;1.00;1.00;;;;;25.65;41.89;101933.03;4938025;28;51052;-44
2023/08/21 08:09:03;;;;;;;;;0.00;0.00;;;;;25.65;41.64;101935.69;4937855;28;46411;-43
2023/08/21 08:11:29;;;;;;;;;2.75;1.00;;;;;25.67;41.71;101933.78;4938123;28;45665;-45
2023/08/21 08:13:54;;;;;;;;;2.00;1.00;;;;;25.66;41.81;101935.63;4938123;28;45402;-47
2023/08/21 08:16:20;;;;;;;;;0.00;0.00;;;;;25.66;41.85;101929.44;4938284;28;45574;-45
2023/08/21 08:18:45;;;;;;;;;0.50;0.50;;;;;25.66;41.76;101926.78;4937181;28;56329;-42
2023/08/21 08:21:10;;;;;;;;;1.00;1.00;;;;;25.65;41.89;101933.91;4937897;28;45416;-40
2023/08/21 08:23:36;;;;;;;;;0.00;0.00;;;;;25.67;41.78;101932.00;4938050;28;45434;-45
2023/08/21 08:26:02;;;;;;;;;0.75;0.75;;;;;25.66;41.99;101930.31;4938276;28;45641;-43
2023/08/21 08:28:27;;;;;;;;;2.25;1.25;;;;;25.67;41.67;101931.16;4937650;28;46666;-43
2023/08/21 08:30:53;;;;;;;;;1.00;0.00;;;;;25.65;42.08;101928.59;4920572;28;45411;-45
2023/08/21 08:33:19;;;;;;;;;1.00;1.00;;;;;25.68;42.27;101932.84;4938255;28;45353;-41
2023/08/21 15:15:51;;;;;;;;;1.00;1.00;;;;;26.60;43.05;101622.34;5932509;23;46492;-40
2023/08/21 15:18:17;;;;;;;;;1.50;1.50;;;;;26.59;43.02;101621.50;4957349;28;46514;-41
2023/08/21 15:20:42;;;;;;;;;1.50;1.50;;;;;26.62;42.90;101620.44;4957720;28;65807;-37
2023/08/21 15:23:07;;;;;;;;;1.25;1.25;;;;;26.60;43.23;101622.34;4957874;28;45443;-39
2023/08/21 15:25:32;;;;;;;;;1.50;1.50;;;;;26.61;43.34;101621.41;4958177;28;45566;-39
2023/08/21 15:27:58;;;;;;;;;3.00;2.00;;;;;26.61;43.11;101613.44;4956106;28;65398;-41
2023/08/21 15:30:23;;;;;;;;;1.00;1.00;;;;;26.61;43.00;101608.94;4958101;28;45354;-38
2023/08/21 15:32:48;;;;;;;;;2.00;2.00;;;;;26.61;43.22;101611.59;4958117;28;45311;-39
2023/08/21 15:35:15;;;;;;;;;1.00;1.00;;;;;26.62;43.22;101609.81;4958516;28;45460;-42
2023/08/21 15:37:40;;;;;;;;;1.50;1.50;;;;;26.63;43.21;101611.47;4957817;28;46194;-38
2023/08/21 15:40:07;;;;;;;;;2.00;2.00;;;;;26.63;42.93;101611.47;4957861;28;45362;-44
2023/08/21 15:42:32;;;;;;;;;1.00;1.00;;;;;26.60;43.03;101601.09;4957885;28;45265;-43
2023/08/21 15:44:57;;;;;;;;;2.25;2.00;;;;;26.63;42.99;101611.47;4958026;28;45326;-42
2023/08/21 15:47:23;;;;;;;;;2.00;2.00;;;;;26.63;43.19;101607.03;4957711;28;46024;-40
2023/08/21 15:49:48;;;;;;;;;2.00;1.25;;;;;26.64;42.94;101600.75;4956210;28;56788;-38
2023/08/21 15:52:14;;;;;;;;;3.00;3.00;;;;;26.62;43.28;101604.50;4958092;28;45360;-41
2023/08/21 15:54:39;;;;;;;;;3.00;2.00;;;;;26.65;43.38;101602.47;4957656;28;45243;-39
2023/08/21 15:57:04;;;;;;;;;4.25;2.00;;;;;26.66;42.96;101590.88;4957426;28;45323;-40
2023/08/21 15:59:30;;;;;;;;;2.00;1.25;;;;;26.63;43.06;101585.75;4957350;28;45437;-41
2023/08/21 16:01:55;;;;;;;;;1.75;1.75;;;;;26.67;43.23;101589.06;4957468;28;45188;-39
2023/08/21 16:04:20;;;;;;;;;2.25;2.00;;;;;26.65;43.24;101583.84;4957689;28;45631;-41
2023/08/21 16:06:47;;;;;;;;;1.00;1.00;;;;;26.69;43.12;101587.16;4957493;28;45223;-38
2023/08/21 16:09:12;;;;;;;;;1.00;1.00;;;;;26.68;42.94;101582.78;4939751;28;45822;-41
2023/08/21 16:11:38;;;;;;;;;2.00;2.00;;;;;26.68;43.22;101588.94;4957006;28;50509;-41
2023/08/21 16:14:07;;;;;;;;;2.00;2.00;;;;;26.70;43.20;101583.53;4957416;28;45362;-37
2023/08/21 16:16:33;;;;;;;;;4.50;1.00;;;;;26.72;43.13;101581.63;4957056;28;47065;-37
2023/08/21 16:18:58;;;;;;;;;1.25;1.25;;;;;26.75;43.18;101586.69;4957267;28;45275;-39
2023/08/21 16:21:23;;;;;;;;;12.00;6.75;;;;;26.75;43.40;101584.03;4957373;28;45208;-40
2023/08/21 16:23:49;;;;;;;;;2.00;2.00;;;;;26.76;43.07;101577.75;4957709;28;45326;-39
2023/08/21 16:26:14;;;;;;;;;4.00;2.00;;;;;26.75;43.03;101573.41;4957030;28;46224;-40
2023/08/21 16:28:39;;;;;;;;;2.75;2.75;;;;;26.75;42.96;101578.72;4956927;28;45343;-43
2023/08/21 16:31:07;;;;;;;;;1.00;1.00;;;;;26.74;43.12;101566.38;4957061;28;45167;-42
2023/08/21 16:33:35;;;;;;;;;3.00;1.50;;;;;26.74;43.02;101574.34;4957286;28;45389;-44
2023/08/21 16:36:01;;;;;;;;;4.25;2.00;;;;;26.75;42.95;101569.91;4956914;28;46252;-44
2023/08/21 16:38:26;;;;;;;;;1.00;1.00;;;;;26.73;42.96;101575.34;4955986;28;45834;-43
2023/08/21 16:40:52;;;;;;;;;2.00;2.00;;;;;26.73;42.66;101569.16;4960469;28;45330;-43
2023/08/21 16:43:17;;;;;;;;;1.25;1.25;;;;;26.73;42.52;101572.69;4943042;28;45465;-45
2023/08/21 16:45:42;;;;;;;;;2.00;2.00;;;;;26.72;42.69;101565.66;4959860;28;57042;-43
2023/08/21 16:48:08;;;;;;;;;2.75;1.25;;;;;26.73;42.57;101567.38;4960096;28;45346;-39
2023/08/21 16:50:33;;;;;;;;;2.00;2.00;;;;;26.71;42.45;101558.66;4959958;28;45338;-41
2023/08/21 16:52:58;;;;;;;;;2.00;2.00;;;;;26.73;42.36;101566.50;4960076;28;45605;-39
2023/08/21 16:55:24;;;;;;;;;3.00;2.00;;;;;26.72;42.22;101567.47;4942555;28;46009;-38
2023/08/21 16:57:49;;;;;;;;;2.00;2.00;;;;;26.72;42.43;101557.69;4960224;28;45184;-42
2023/08/21 17:00:15;;;;;;;;;2.25;2.00;;;;;26.72;42.52;101557.69;4960319;28;45310;-42
2023/08/21 17:02:40;;;;;;;;;3.00;1.75;;;;;26.73;42.30;101559.38;4960045;28;45540;-42
2023/08/21 17:05:06;;;;;;;;;2.50;2.00;;;;;26.73;42.51;101559.38;4959739;28;45507;-40
2023/08/21 17:07:37;;;;;;;;;2.00;2.00;;;;;26.72;42.57;101559.47;4959620;28;45850;-40
2023/08/21 17:10:03;;;;;;;;;2.00;2.00;;;;;26.72;42.84;101563.00;4942426;28;45402;-42
2023/08/21 17:12:28;;;;;;;;;2.00;2.00;;;;;26.72;42.52;101554.16;4942513;28;45449;-43
2023/08/21 17:14:54;;;;;;;;;2.50;1.25;;;;;26.72;42.30;101556.81;4959764;28;46008;-43
2023/08/21 17:17:19;;;;;;;;;1.50;1.50;;;;;26.72;42.32;101552.38;4960043;28;45343;-39
2023/08/21 17:19:45;;;;;;;;;3.50;1.75;;;;;26.71;42.34;101555.97;4959788;28;45386;-41
2023/08/21 17:22:10;;;;;;;;;1.00;1.00;;;;;26.72;42.72;101551.50;4959939;28;45333;-38
2023/08/21 17:24:36;;;;;;;;;1.25;1.25;;;;;26.72;42.30;101563.00;4959263;28;45916;-40
2023/08/21 17:27:04;;;;;;;;;2.75;1.00;;;;;26.72;42.26;101563.00;4959429;28;52402;-38
2023/08/21 17:29:29;;;;;;;;;2.00;2.00;;;;;26.71;42.10;101555.97;4958286;28;45416;-39
2023/08/21 17:31:54;;;;;;;;;2.00;2.00;;;;;26.72;42.66;101560.34;4959375;28;45389;-39
2023/08/21 17:34:20;;;;;;;;;2.00;2.00;;;;;26.73;42.27;101559.38;4958805;28;65590;-39
2023/08/21 17:36:49;;;;;;;;;1.50;1.00;;;;;26.74;42.12;101558.41;4959281;28;45409;-43
2023/08/21 17:39:15;;;;;;;;;2.00;2.00;;;;;26.74;42.26;101558.41;4959289;28;45444;-43
2023/08/21 17:41:40;;;;;;;;;2.00;2.00;;;;;26.73;42.24;101558.53;4959667;28;45604;-39
2023/08/21 17:44:06;;;;;;;;;1.00;0.75;;;;;26.75;42.14;101559.28;4958837;28;46215;-37
2023/08/21 17:46:31;;;;;;;;;3.25;1.00;;;;;26.73;42.42;101556.72;4959421;28;45291;-41
2023/08/21 17:48:56;;;;;;;;;1.25;1.25;;;;;26.74;42.13;101561.06;4958421;28;48793;-41
2023/08/21 17:51:22;;;;;;;;;2.25;2.25;;;;;26.74;42.22;101566.38;4959051;28;45551;-42
2023/08/21 17:53:47;;;;;;;;;1.00;1.00;;;;;26.75;42.29;101562.75;4959199;28;46407;-38
2023/08/21 17:56:12;;;;;;;;;2.00;2.00;;;;;26.77;42.19;101555.53;4958649;28;61135;-41
2023/08/21 17:58:38;;;;;;;;;2.00;2.00;;;;;26.78;42.37;101556.44;4959299;28;45439;-40